Time;durP1;ratioP1;P1;durP2;ratioP2;P2;SDS_P1;SDS_P2;PMS_P1;PMS_P2;Temp;Humidity;BMP_temperature;BMP_pressure;BME280_temperature;BME280_humidity;BME280_pressure;Samples;Min_cycle;Max_cycle;Signal;HPM_P1;HPM_P2
2022/07/06 00:00:07;;;;;;;5.40;3.35;;;16.10;99.90;;;;;;5054174;28;20029;-84
2022/07/06 00:02:33;;;;;;;5.50;2.95;;;16.20;99.90;;;;;;5050103;28;20025;-84
2022/07/06 00:04:59;;;;;;;3.10;2.80;;;16.10;99.90;;;;;;5049548;28;20125;-84
2022/07/06 00:07:27;;;;;;;5.55;3.20;;;16.10;99.90;;;;;;5067691;28;20033;-85
2022/07/06 00:09:53;;;;;;;3.25;2.55;;;16.00;99.90;;;;;;5050935;28;20037;-84
2022/07/06 00:12:19;;;;;;;7.63;2.60;;;15.90;99.90;;;;;;5075529;28;20052;-84
2022/07/06 00:14:45;;;;;;;5.43;2.70;;;15.80;99.90;;;;;;5054910;28;20520;-85
2022/07/06 00:17:10;;;;;;;3.15;2.70;;;15.80;99.90;;;;;;5050052;28;20033;-84
2022/07/06 00:19:36;;;;;;;4.20;3.30;;;15.70;99.90;;;;;;5049046;28;20071;-84
2022/07/06 00:22:08;;;;;;;8.90;2.83;;;15.70;99.90;;;;;;5065138;28;20458;-84
2022/07/06 00:24:33;;;;;;;8.48;2.72;;;15.70;99.90;;;;;;5065203;28;20029;-85
2022/07/06 00:26:59;;;;;;;4.28;2.33;;;15.60;99.90;;;;;;5049425;28;20078;-84
2022/07/06 00:29:25;;;;;;;6.10;2.35;;;15.60;99.90;;;;;;5048704;28;20040;-85
2022/07/06 00:31:50;;;;;;;5.03;3.15;;;15.50;99.90;;;;;;5054724;28;20044;-84
2022/07/06 00:34:16;;;;;;;4.00;2.75;;;15.50;99.90;;;;;;5048374;28;20028;-83
2022/07/06 00:36:45;;;;;;;4.13;2.65;;;15.50;99.90;;;;;;5048515;28;20548;-84
2022/07/06 00:39:11;;;;;;;5.13;3.17;;;15.50;99.90;;;;;;5048127;28;20076;-83
2022/07/06 00:41:36;;;;;;;7.78;3.10;;;15.40;99.90;;;;;;5065853;28;20039;-85
2022/07/06 00:44:08;;;;;;;6.25;2.85;;;15.40;99.90;;;;;;5048633;28;20079;-83
2022/07/06 00:46:34;;;;;;;6.80;3.10;;;15.40;99.90;;;;;;5048553;28;20025;-84
2022/07/06 00:49:03;;;;;;;6.10;3.03;;;15.40;99.90;;;;;;5048697;28;20033;-85
2022/07/06 00:51:30;;;;;;;3.53;3.08;;;15.30;99.90;;;;;;5049258;28;20405;-83
2022/07/06 00:54:00;;;;;;;6.72;3.08;;;15.20;99.90;;;;;;5048631;28;20040;-84
2022/07/06 00:56:28;;;;;;;5.90;3.22;;;15.20;99.90;;;;;;5049495;28;20017;-83
2022/07/06 00:58:54;;;;;;;4.70;2.78;;;15.10;99.90;;;;;;5048638;28;20044;-84
2022/07/06 01:01:22;;;;;;;3.72;2.80;;;15.00;99.90;;;;;;5065853;28;20493;-85
2022/07/06 01:03:48;;;;;;;5.43;3.03;;;14.90;99.90;;;;;;5043019;28;20029;-85
2022/07/06 01:06:14;;;;;;;4.07;3.28;;;15.00;99.90;;;;;;5056785;28;20039;-86
2022/07/06 01:08:40;;;;;;;4.18;2.88;;;14.90;99.90;;;;;;5053935;28;20053;-84
2022/07/06 01:11:07;;;;;;;4.72;3.33;;;14.90;99.90;;;;;;5048814;28;20025;-82
2022/07/06 01:13:33;;;;;;;6.32;3.35;;;14.80;99.90;;;;;;5047397;28;20436;-83
2022/07/06 01:15:59;;;;;;;8.98;2.95;;;14.80;99.90;;;;;;5055155;28;20036;-83
2022/07/06 01:18:25;;;;;;;5.28;3.03;;;14.80;99.90;;;;;;5046133;28;20025;-85
2022/07/06 01:20:51;;;;;;;4.97;3.17;;;14.70;99.90;;;;;;5064785;28;20021;-82
2022/07/06 01:23:17;;;;;;;5.00;3.08;;;14.70;99.90;;;;;;5064364;28;20037;-83
2022/07/06 01:25:43;;;;;;;8.25;3.33;;;14.60;99.90;;;;;;5031508;28;20539;-84
2022/07/06 01:28:09;;;;;;;4.55;3.17;;;14.60;99.90;;;;;;5063019;28;20481;-83
2022/07/06 01:30:38;;;;;;;7.03;3.08;;;14.60;99.90;;;;;;5047450;28;20028;-84
2022/07/06 01:33:03;;;;;;;6.00;3.13;;;14.50;99.90;;;;;;5047714;28;20091;-84
2022/07/06 01:35:34;;;;;;;4.75;2.97;;;14.50;99.90;;;;;;5045545;28;20037;-84
2022/07/06 01:37:59;;;;;;;8.20;3.97;;;14.40;99.90;;;;;;5051969;28;20493;-84
2022/07/06 01:40:25;;;;;;;5.82;3.08;;;14.40;99.90;;;;;;5046150;28;20033;-84
2022/07/06 01:42:51;;;;;;;5.50;2.88;;;14.40;99.90;;;;;;5048474;28;20029;-84
2022/07/06 01:45:18;;;;;;;6.38;3.17;;;14.30;99.90;;;;;;5048219;28;20025;-84
2022/07/06 01:47:45;;;;;;;6.20;3.78;;;14.30;99.90;;;;;;5048329;28;20493;-84
2022/07/06 01:50:11;;;;;;;5.15;3.40;;;14.30;99.90;;;;;;5047711;28;20056;-84
2022/07/06 01:52:40;;;;;;;6.45;3.15;;;14.20;99.90;;;;;;5032993;28;20033;-83
2022/07/06 01:55:06;;;;;;;4.40;2.90;;;14.30;99.90;;;;;;5065176;28;20454;-84
2022/07/06 01:57:37;;;;;;;5.63;3.47;;;14.30;99.90;;;;;;5047433;28;20055;-85
2022/07/06 02:00:08;;;;;;;4.70;4.00;;;14.30;99.90;;;;;;5067766;28;20460;-84
2022/07/06 02:02:38;;;;;;;7.47;3.03;;;14.30;99.90;;;;;;5066898;28;20041;-83
2022/07/06 02:05:04;;;;;;;4.20;3.67;;;14.20;99.90;;;;;;5049858;28;20356;-85
2022/07/06 02:07:34;;;;;;;5.15;3.33;;;14.10;99.90;;;;;;5050159;28;20029;-85
2022/07/06 02:10:01;;;;;;;10.13;3.63;;;14.10;99.90;;;;;;5067007;28;20036;-83
2022/07/06 02:12:27;;;;;;;3.88;3.50;;;14.00;99.90;;;;;;5046046;28;20033;-83
2022/07/06 02:14:53;;;;;;;8.05;3.30;;;14.00;99.90;;;;;;5064895;28;20551;-83
2022/07/06 02:17:19;;;;;;;5.78;3.20;;;13.90;99.90;;;;;;5051079;28;20111;-84
2022/07/06 02:19:44;;;;;;;5.40;3.53;;;13.90;99.90;;;;;;5051576;28;20564;-85
2022/07/06 02:22:12;;;;;;;4.30;3.38;;;13.90;99.90;;;;;;5051878;28;20013;-84
2022/07/06 02:24:38;;;;;;;4.78;3.25;;;13.80;99.90;;;;;;5042594;28;20033;-84
2022/07/06 02:27:04;;;;;;;5.43;3.25;;;13.80;99.90;;;;;;5050638;28;20124;-84
2022/07/06 02:29:30;;;;;;;5.28;3.78;;;13.70;99.90;;;;;;5035287;28;20541;-85
2022/07/06 02:31:56;;;;;;;6.05;3.63;;;13.70;99.90;;;;;;5051821;28;20058;-83
2022/07/06 02:34:22;;;;;;;4.53;3.45;;;13.60;99.90;;;;;;5053350;28;20111;-84
2022/07/06 02:36:52;;;;;;;8.63;3.58;;;13.60;99.90;;;;;;5039242;28;20025;-84
2022/07/06 02:39:18;;;;;;;4.25;3.70;;;13.50;99.90;;;;;;5055015;28;20033;-84
2022/07/06 02:41:44;;;;;;;9.27;3.40;;;13.50;99.90;;;;;;5052254;28;20033;-84
2022/07/06 02:44:10;;;;;;;4.75;3.70;;;13.50;99.90;;;;;;5052217;28;20158;-83
2022/07/06 02:46:39;;;;;;;7.78;4.07;;;13.40;99.90;;;;;;5050719;28;20056;-83
2022/07/06 02:49:04;;;;;;;8.48;5.03;;;13.40;99.90;;;;;;5036326;28;20110;-83
2022/07/06 02:51:33;;;;;;;10.63;4.20;;;13.40;99.90;;;;;;5054668;28;20035;-84
2022/07/06 02:53:59;;;;;;;6.07;4.30;;;13.40;99.90;;;;;;5069858;28;20441;-83
2022/07/06 02:56:25;;;;;;;8.20;4.10;;;13.40;99.90;;;;;;5053877;28;20049;-84
2022/07/06 02:58:51;;;;;;;5.53;4.07;;;13.40;99.90;;;;;;5069509;28;20115;-85
2022/07/06 03:01:17;;;;;;;5.75;4.00;;;13.40;99.90;;;;;;5053497;28;20033;-84
2022/07/06 03:03:43;;;;;;;10.60;4.40;;;13.40;99.90;;;;;;5052315;28;20477;-83
2022/07/06 03:06:10;;;;;;;5.80;4.30;;;13.30;99.90;;;;;;5069770;28;20087;-84
2022/07/06 03:08:36;;;;;;;7.60;4.63;;;13.30;99.90;;;;;;5054382;28;20082;-84
2022/07/06 03:11:02;;;;;;;5.35;4.07;;;13.30;99.90;;;;;;5082178;28;20052;-84
2022/07/06 03:13:29;;;;;;;4.93;3.78;;;13.20;99.90;;;;;;5058568;28;20029;-85
2022/07/06 03:15:55;;;;;;;10.68;4.25;;;13.10;99.90;;;;;;5066532;28;20025;-84
2022/07/06 03:18:21;;;;;;;6.95;4.13;;;13.10;99.90;;;;;;5055760;28;20053;-84
2022/07/06 03:20:50;;;;;;;6.30;4.70;;;13.10;99.90;;;;;;5070756;28;20021;-84
2022/07/06 03:23:17;;;;;;;5.60;3.97;;;13.10;99.90;;;;;;5072966;28;20051;-85
2022/07/06 03:25:44;;;;;;;5.57;4.78;;;13.00;99.90;;;;;;5055753;28;20110;-84
2022/07/06 03:28:10;;;;;;;26.80;13.23;;;13.00;99.90;;;;;;5066294;28;20088;-86
2022/07/06 03:30:36;;;;;;;17.00;8.23;;;13.00;99.90;;;;;;5053941;28;20086;-83
2022/07/06 03:33:02;;;;;;;19.27;5.63;;;12.90;99.90;;;;;;5050378;28;20091;-84
2022/07/06 03:35:35;;;;;;;5.82;4.63;;;12.90;99.90;;;;;;5064596;28;20040;-84
2022/07/06 03:38:04;;;;;;;9.20;5.18;;;12.90;99.90;;;;;;5033701;28;20489;-84
2022/07/06 03:40:31;;;;;;;17.15;6.18;;;12.90;99.90;;;;;;5067514;28;20592;-83
2022/07/06 03:42:56;;;;;;;12.32;6.07;;;12.90;99.90;;;;;;5050011;28;20100;-84
2022/07/06 03:45:27;;;;;;;10.55;5.80;;;13.00;99.90;;;;;;5049544;28;20420;-83
2022/07/06 03:47:54;;;;;;;17.98;7.25;;;13.00;99.90;;;;;;5084064;28;20135;-83
2022/07/06 03:50:20;;;;;;;5.88;4.90;;;13.00;99.90;;;;;;5049164;28;20025;-84
2022/07/06 03:52:46;;;;;;;8.77;4.93;;;13.10;99.90;;;;;;5049986;28;20098;-84
2022/07/06 03:55:12;;;;;;;15.70;6.80;;;13.10;99.90;;;;;;5046579;28;20032;-83
2022/07/06 03:57:45;;;;;;;17.33;7.47;;;13.20;99.90;;;;;;5048040;28;20037;-83
2022/07/06 04:00:15;;;;;;;26.83;12.85;;;13.30;99.90;;;;;;5060341;28;20057;-83
2022/07/06 04:02:45;;;;;;;33.17;12.80;;;13.40;99.90;;;;;;5033989;28;20036;-84
2022/07/06 04:05:21;;;;;;;24.67;9.10;;;13.40;99.90;;;;;;5033925;28;20530;-84
2022/07/06 04:07:48;;;;;;;11.85;6.40;;;13.50;99.90;;;;;;5048783;28;20040;-84
2022/07/06 04:10:17;;;;;;;11.73;5.75;;;13.60;99.90;;;;;;5033093;28;20098;-83
2022/07/06 04:12:44;;;;;;;7.30;5.18;;;13.70;99.90;;;;;;5048750;28;20726;-83
2022/07/06 04:15:12;;;;;;;10.23;5.15;;;13.80;99.90;;;;;;5049447;28;20147;-83
2022/07/06 04:17:53;;;;;;;12.15;5.00;;;13.80;99.90;;;;;;5033569;28;20497;-84
2022/07/06 04:20:25;;;;;;;15.77;4.80;;;13.80;99.90;;;;;;5065731;28;20036;-84
2022/07/06 04:23:00;;;;;;;12.75;5.10;;;13.80;99.90;;;;;;5070100;28;20028;-86
2022/07/06 04:25:27;;;;;;;28.35;7.00;;;13.80;99.90;;;;;;5043634;28;20021;-84
2022/07/06 04:27:56;;;;;;;9.68;4.90;;;13.90;99.90;;;;;;5070611;28;20036;-84
2022/07/06 04:30:22;;;;;;;9.43;5.30;;;13.90;99.90;;;;;;5066779;28;20072;-84
2022/07/06 04:32:55;;;;;;;10.18;5.05;;;14.00;99.90;;;;;;5055576;28;20048;-85
2022/07/06 04:35:22;;;;;;;8.30;5.00;;;14.00;99.90;;;;;;5071367;28;20032;-83
2022/07/06 04:37:50;;;;;;;7.22;5.10;;;14.10;99.90;;;;;;5054501;28;20029;-84
2022/07/06 04:40:18;;;;;;;11.50;5.07;;;14.00;99.90;;;;;;5054002;28;20037;-87
2022/07/06 04:42:53;;;;;;;9.93;5.43;;;14.00;99.90;;;;;;5051620;28;20071;-86
2022/07/06 04:45:20;;;;;;;14.00;5.50;;;14.00;99.90;;;;;;5069256;28;20075;-85
2022/07/06 04:47:46;;;;;;;12.75;5.72;;;14.00;99.90;;;;;;5068096;28;20028;-84
2022/07/06 04:50:13;;;;;;;10.32;4.47;;;14.00;99.90;;;;;;5050444;28;20033;-84
2022/07/06 04:52:39;;;;;;;9.95;5.43;;;14.10;99.90;;;;;;5049628;28;20086;-84
2022/07/06 04:55:14;;;;;;;6.43;4.60;;;14.10;99.90;;;;;;5049040;28;20416;-85
2022/07/06 04:57:41;;;;;;;9.13;5.20;;;14.10;99.90;;;;;;5049442;28;20723;-84
2022/07/06 05:00:08;;;;;;;8.23;4.95;;;14.10;99.90;;;;;;5065000;28;20651;-84
2022/07/06 05:02:34;;;;;;;7.82;5.00;;;14.20;99.90;;;;;;5032606;28;20036;-83
2022/07/06 05:05:09;;;;;;;8.45;4.53;;;14.30;99.90;;;;;;5048290;28;20033;-83
2022/07/06 05:07:39;;;;;;;13.30;5.13;;;14.40;99.90;;;;;;5048754;28;20045;-84
2022/07/06 05:10:10;;;;;;;7.70;5.28;;;14.40;99.90;;;;;;5043518;28;20029;-84
2022/07/06 05:12:38;;;;;;;8.70;4.30;;;14.40;99.90;;;;;;5031786;28;20032;-85
2022/07/06 05:15:13;;;;;;;13.85;5.38;;;14.30;99.90;;;;;;5044268;28;20082;-83
2022/07/06 05:17:40;;;;;;;6.95;4.60;;;14.40;99.90;;;;;;5049930;28;20401;-84
2022/07/06 05:20:07;;;;;;;8.90;4.88;;;14.50;99.90;;;;;;5047049;28;20050;-85
2022/07/06 05:22:36;;;;;;;11.10;5.72;;;14.60;99.90;;;;;;5047329;28;20501;-83
2022/07/06 05:25:02;;;;;;;10.98;4.90;;;14.70;99.90;;;;;;5046609;28;20013;-84
2022/07/06 05:27:29;;;;;;;7.75;4.70;;;14.70;99.90;;;;;;5031494;28;20032;-84
2022/07/06 05:29:55;;;;;;;9.50;4.80;;;14.70;99.90;;;;;;5047557;28;20033;-84
2022/07/06 05:32:20;;;;;;;9.40;6.45;;;14.60;99.90;;;;;;5030802;28;20134;-84
2022/07/06 05:34:47;;;;;;;13.10;5.18;;;14.50;99.90;;;;;;5046917;28;20036;-83
2022/07/06 05:37:13;;;;;;;7.75;5.45;;;14.50;99.90;;;;;;5047344;28;20780;-83
2022/07/06 05:39:45;;;;;;;10.25;5.60;;;14.50;99.90;;;;;;5047244;28;20033;-85
2022/07/06 05:42:11;;;;;;;7.47;5.43;;;14.50;99.90;;;;;;5048055;28;20107;-86
2022/07/06 05:44:37;;;;;;;14.90;5.10;;;14.50;99.90;;;;;;5045549;28;20025;-84
2022/07/06 05:52:35;;;;;;;9.50;5.20;;;14.40;99.90;;;;;;5066358;28;20071;-84
2022/07/06 05:55:01;;;;;;;10.52;5.65;;;14.40;99.90;;;;;;5048595;28;20029;-85
2022/07/06 05:57:28;;;;;;;9.18;5.50;;;14.40;99.90;;;;;;5042435;28;20611;-82
2022/07/06 05:59:54;;;;;;;14.38;5.90;;;14.50;99.90;;;;;;5051464;28;20044;-84
2022/07/06 06:02:20;;;;;;;8.07;5.13;;;14.50;99.90;;;;;;5048556;28;20033;-83
2022/07/06 06:04:45;;;;;;;10.65;5.43;;;14.50;99.90;;;;;;5050133;28;20036;-82
2022/07/06 06:07:17;;;;;;;10.57;5.25;;;14.50;99.90;;;;;;5048065;28;20029;-84
2022/07/06 06:09:43;;;;;;;8.10;5.13;;;14.50;99.90;;;;;;5032094;28;20537;-84
2022/07/06 06:12:09;;;;;;;8.35;5.28;;;14.40;99.90;;;;;;5026651;28;20086;-83
2022/07/06 06:14:35;;;;;;;12.35;5.55;;;14.50;99.90;;;;;;5064355;28;20116;-85
2022/07/06 06:17:08;;;;;;;8.00;5.30;;;14.50;99.90;;;;;;5048231;28;20048;-89
2022/07/06 06:19:36;;;;;;;10.48;5.82;;;14.50;99.90;;;;;;5032996;28;20040;-84
2022/07/06 06:22:03;;;;;;;8.77;5.07;;;14.60;99.90;;;;;;5050448;28;20475;-85
2022/07/06 06:24:28;;;;;;;10.95;5.43;;;14.60;99.90;;;;;;5054963;28;20036;-84
2022/07/06 06:26:54;;;;;;;8.00;5.22;;;14.60;99.90;;;;;;5049694;28;20764;-87
2022/07/06 06:29:19;;;;;;;14.45;5.60;;;14.70;99.90;;;;;;5049882;28;20064;-87
2022/07/06 06:31:45;;;;;;;10.75;5.05;;;14.80;99.90;;;;;;5049057;28;20091;-84
2022/07/06 06:34:11;;;;;;;7.65;5.22;;;14.90;99.90;;;;;;5049072;28;20036;-86
2022/07/06 06:36:37;;;;;;;10.30;4.97;;;14.90;99.90;;;;;;5066898;28;20043;-86
2022/07/06 06:39:03;;;;;;;16.05;5.25;;;15.00;99.90;;;;;;5051278;28;20096;-85
2022/07/06 06:41:28;;;;;;;10.88;4.97;;;15.00;99.90;;;;;;5049395;28;20028;-85
2022/07/06 06:43:54;;;;;;;6.28;4.40;;;15.00;99.90;;;;;;5049849;28;20028;-84
2022/07/06 06:46:23;;;;;;;5.68;4.22;;;15.00;99.90;;;;;;5054611;28;20036;-84
2022/07/06 06:48:49;;;;;;;11.00;4.93;;;15.10;99.90;;;;;;5049492;28;20028;-86
2022/07/06 06:51:14;;;;;;;9.80;5.03;;;15.30;99.90;;;;;;5067829;28;20102;-86
2022/07/06 06:53:40;;;;;;;9.93;4.25;;;15.20;99.90;;;;;;5053531;28;20040;-85
2022/07/06 06:56:09;;;;;;;6.82;4.28;;;15.20;99.90;;;;;;5056820;28;20020;-91
2022/07/06 06:58:35;;;;;;;8.23;4.43;;;15.30;99.90;;;;;;5057244;28;20088;-86
2022/07/06 07:01:00;;;;;;;15.98;5.30;;;15.40;99.90;;;;;;5055544;28;20059;-86
2022/07/06 07:03:26;;;;;;;9.32;4.70;;;15.40;99.90;;;;;;5072274;28;20035;-86
2022/07/06 07:05:52;;;;;;;10.60;5.18;;;15.30;99.90;;;;;;5090543;28;20516;-85
2022/07/06 07:08:17;;;;;;;13.27;4.75;;;15.40;99.90;;;;;;5072601;28;20025;-86
2022/07/06 07:10:43;;;;;;;10.57;4.65;;;15.60;99.90;;;;;;5055712;28;20128;-87
2022/07/06 07:13:09;;;;;;;7.95;4.45;;;15.70;99.90;;;;;;5077329;28;20025;-83
2022/07/06 07:15:34;;;;;;;24.85;5.40;;;15.70;99.90;;;;;;5074589;28;20044;-86
2022/07/06 07:18:00;;;;;;;5.32;4.00;;;15.70;99.90;;;;;;5053479;28;20041;-85
2022/07/06 07:20:29;;;;;;;14.55;4.07;;;15.90;99.90;;;;;;5071960;28;20108;-88
2022/07/06 07:22:55;;;;;;;4.75;3.60;;;16.30;99.90;;;;;;5057918;28;20071;-86
2022/07/06 07:25:21;;;;;;;5.35;3.20;;;17.40;99.90;;;;;;5072768;28;20049;-85
2022/07/06 07:27:47;;;;;;;9.45;3.58;;;18.60;99.90;;;;;;5058830;28;20086;-87
2022/07/06 07:30:13;;;;;;;6.47;4.07;;;19.80;99.90;;;;;;5073880;28;20084;-88
2022/07/06 07:32:40;;;;;;;6.82;3.03;;;20.20;99.90;;;;;;5082294;28;20087;-87
2022/07/06 07:35:09;;;;;;;6.18;3.00;;;20.70;99.90;;;;;;5056616;28;20017;-86
2022/07/06 07:37:34;;;;;;;5.03;3.00;;;21.60;99.90;;;;;;5056072;28;20331;-85
2022/07/06 07:40:01;;;;;;;6.78;3.38;;;22.30;99.90;;;;;;5055216;28;20025;-86
2022/07/06 07:42:27;;;;;;;5.18;2.80;;;22.40;99.90;;;;;;5052387;28;20036;-86
2022/07/06 07:44:52;;;;;;;9.20;3.00;;;21.20;99.90;;;;;;5046308;28;20034;-87
2022/07/06 07:47:18;;;;;;;10.13;3.42;;;20.10;99.90;;;;;;5063950;28;20040;-84
2022/07/06 07:49:46;;;;;;;9.38;3.40;;;19.50;99.90;;;;;;5052155;28;20116;-85
2022/07/06 07:52:12;;;;;;;10.40;3.80;;;18.90;99.90;;;;;;5050965;28;20036;-85
2022/07/06 07:54:38;;;;;;;10.43;3.72;;;18.30;99.90;;;;;;5045032;28;20087;-86
2022/07/06 07:57:04;;;;;;;7.90;3.78;;;18.10;99.90;;;;;;5068724;28;20374;-86
2022/07/06 07:59:30;;;;;;;6.85;3.60;;;17.90;99.90;;;;;;5052511;28;20036;-86
2022/07/06 08:01:56;;;;;;;7.97;3.47;;;17.90;99.90;;;;;;5052953;28;20061;-85
2022/07/06 08:04:29;;;;;;;8.15;2.72;;;18.70;99.90;;;;;;5068758;28;20112;-86
2022/07/06 08:06:55;;;;;;;7.57;4.18;;;20.40;99.90;;;;;;5069491;28;20028;-86
2022/07/06 08:09:21;;;;;;;7.05;2.72;;;21.60;99.90;;;;;;5068124;28;20078;-87
2022/07/06 08:11:46;;;;;;;6.18;2.78;;;22.60;99.90;;;;;;5051807;28;20036;-87
2022/07/06 08:14:14;;;;;;;8.50;3.50;;;23.20;99.90;;;;;;5053111;28;20063;-86
2022/07/06 08:16:47;;;;;;;11.55;3.22;;;23.60;99.90;;;;;;5052504;28;20479;-87
2022/07/06 08:19:14;;;;;;;13.63;3.50;;;24.00;99.90;;;;;;5068137;28;20132;-87
2022/07/06 08:21:41;;;;;;;7.43;3.08;;;24.90;99.60;;;;;;5053734;28;20025;-85
2022/07/06 08:24:08;;;;;;;8.65;3.58;;;25.00;98.40;;;;;;5047729;28;20032;-86
2022/07/06 08:26:34;;;;;;;8.77;4.20;;;24.40;98.50;;;;;;5052407;28;20037;-87
2022/07/06 08:29:03;;;;;;;8.63;3.33;;;23.70;98.60;;;;;;5058971;28;20071;-87
2022/07/06 08:31:29;;;;;;;6.85;3.10;;;24.00;98.20;;;;;;5047823;28;20537;-87
2022/07/06 08:33:56;;;;;;;10.48;3.75;;;24.80;97.10;;;;;;5051320;28;20032;-87
2022/07/06 08:36:23;;;;;;;8.25;2.70;;;25.20;97.40;;;;;;5051526;28;20112;-85
2022/07/06 08:38:49;;;;;;;5.90;3.25;;;25.70;97.20;;;;;;5059925;28;20048;-86
2022/07/06 08:41:16;;;;;;;5.75;2.63;;;25.30;96.30;;;;;;5052713;28;20036;-86
2022/07/06 08:43:44;;;;;;;4.70;3.05;;;26.10;94.90;;;;;;5051063;28;20025;-86
2022/07/06 08:46:12;;;;;;;7.72;2.92;;;26.40;93.80;;;;;;5051917;28;20033;-87
2022/07/06 08:48:40;;;;;;;6.15;2.70;;;26.10;94.20;;;;;;5035719;28;20478;-85
2022/07/06 08:51:06;;;;;;;8.68;3.45;;;25.60;94.30;;;;;;5033196;28;20493;-85
2022/07/06 08:53:33;;;;;;;10.98;3.58;;;24.00;95.70;;;;;;5064535;28;20072;-88
2022/07/06 08:56:01;;;;;;;7.72;3.58;;;22.60;98.00;;;;;;5074788;28;20033;-86
2022/07/06 08:58:27;;;;;;;8.13;3.85;;;22.10;98.90;;;;;;5035728;28;20045;-86
2022/07/06 09:01:00;;;;;;;9.93;3.80;;;22.10;99.00;;;;;;5052435;28;20064;-86
2022/07/06 09:03:27;;;;;;;11.15;4.30;;;21.30;99.80;;;;;;5055490;28;20114;-87
2022/07/06 09:06:01;;;;;;;8.50;3.95;;;21.20;99.90;;;;;;5051738;28;20497;-87
2022/07/06 09:08:31;;;;;;;7.95;3.80;;;20.80;99.90;;;;;;5034236;28;20029;-86
2022/07/06 09:10:57;;;;;;;7.22;4.53;;;20.30;99.90;;;;;;5030220;28;20128;-87
2022/07/06 09:13:23;;;;;;;11.27;5.63;;;20.00;99.90;;;;;;5033939;28;20108;-86
2022/07/06 09:15:48;;;;;;;6.05;3.20;;;20.80;99.90;;;;;;5035038;28;20029;-86
2022/07/06 09:18:17;;;;;;;7.30;3.50;;;21.20;99.90;;;;;;5045754;28;20052;-86
2022/07/06 09:20:43;;;;;;;7.47;4.78;;;20.80;99.90;;;;;;5052531;28;20032;-88
2022/07/06 09:23:09;;;;;;;6.75;3.83;;;20.80;99.90;;;;;;5048219;28;20742;-87
2022/07/06 09:25:35;;;;;;;8.68;4.15;;;20.90;99.90;;;;;;5071623;28;20462;-87
2022/07/06 09:28:01;;;;;;;8.75;4.30;;;21.80;99.90;;;;;;5050794;28;20023;-91
2022/07/06 09:30:40;;;;;;;12.13;3.97;;;21.80;99.90;;;;;;5055081;28;20033;-87
2022/07/06 09:33:07;;;;;;;10.07;3.47;;;22.00;99.90;;;;;;5063147;28;20064;-86
2022/07/06 09:35:38;;;;;;;4.70;3.22;;;22.30;99.90;;;;;;5050863;28;20052;-87
2022/07/06 09:38:13;;;;;;;7.55;3.60;;;22.70;99.90;;;;;;5029479;28;20059;-86
2022/07/06 09:40:42;;;;;;;14.13;3.63;;;22.40;99.90;;;;;;5065729;28;20068;-86
2022/07/06 09:43:14;;;;;;;11.27;4.55;;;21.50;99.90;;;;;;5052401;28;20044;-87
2022/07/06 09:45:42;;;;;;;9.80;3.75;;;20.50;99.90;;;;;;5055673;28;20029;-86
2022/07/06 09:48:13;;;;;;;12.70;4.78;;;20.30;99.90;;;;;;5055109;28;20748;-86
2022/07/06 09:50:44;;;;;;;5.78;3.80;;;20.50;99.90;;;;;;5051602;28;20067;-86
2022/07/06 09:53:11;;;;;;;5.23;3.53;;;20.70;99.90;;;;;;5057316;28;20056;-88
2022/07/06 09:55:36;;;;;;;12.05;4.13;;;21.00;99.90;;;;;;5054752;28;20036;-86
2022/07/06 09:58:06;;;;;;;4.63;3.33;;;21.10;99.90;;;;;;5057777;28;20032;-84
2022/07/06 10:00:32;;;;;;;11.48;3.83;;;20.90;99.90;;;;;;5052601;28;20032;-87
2022/07/06 10:02:59;;;;;;;5.40;3.67;;;20.80;99.90;;;;;;5049948;28;20521;-85
2022/07/06 10:05:31;;;;;;;8.90;4.90;;;21.20;99.90;;;;;;5050696;28;20064;-86
2022/07/06 10:08:09;;;;;;;9.82;3.00;;;22.60;99.90;;;;;;5033302;28;20406;-86
2022/07/06 10:10:38;;;;;;;5.85;3.30;;;24.20;99.90;;;;;;5063382;28;20037;-86
2022/07/06 10:13:07;;;;;;;17.60;3.50;;;24.70;97.60;;;;;;5051174;28;20033;-86
2022/07/06 10:15:35;;;;;;;6.55;2.97;;;23.60;98.30;;;;;;5050478;28;20029;-89
2022/07/06 10:18:10;;;;;;;5.63;2.65;;;22.60;98.20;;;;;;5064686;28;20036;-85
2022/07/06 10:20:38;;;;;;;7.80;3.85;;;21.80;99.90;;;;;;5070009;28;20078;-85
2022/07/06 10:23:06;;;;;;;5.32;3.55;;;22.20;99.40;;;;;;5044706;28;20082;-85
2022/07/06 10:25:34;;;;;;;4.88;3.17;;;22.00;98.80;;;;;;5032297;28;20037;-86
2022/07/06 10:28:00;;;;;;;8.43;3.53;;;22.90;98.90;;;;;;5053234;28;20031;-86
2022/07/06 10:30:28;;;;;;;14.45;4.32;;;23.60;97.10;;;;;;5069161;28;20124;-87
2022/07/06 10:32:57;;;;;;;7.35;3.63;;;23.50;97.30;;;;;;5053431;28;20037;-87
2022/07/06 10:35:22;;;;;;;9.43;3.03;;;23.40;97.70;;;;;;5069475;28;20057;-88
2022/07/06 10:38:05;;;;;;;5.20;3.10;;;23.70;96.80;;;;;;5053686;28;20139;-87
2022/07/06 10:43:20;;;;;;;7.47;3.22;;;23.20;96.20;;;;;;5047401;28;20036;-87
2022/07/06 10:45:46;;;;;;;4.82;3.00;;;23.30;97.20;;;;;;5052710;28;20033;-87
2022/07/06 10:48:11;;;;;;;7.82;3.40;;;23.50;95.70;;;;;;5071383;28;20021;-86
2022/07/06 10:50:49;;;;;;;3.92;2.83;;;23.60;95.70;;;;;;5069972;28;20029;-88
2022/07/06 10:53:25;;;;;;;6.78;2.58;;;23.60;95.10;;;;;;5030935;28;20127;-86
2022/07/06 10:55:56;;;;;;;6.65;3.20;;;23.20;95.20;;;;;;5052877;28;20039;-87
2022/07/06 10:58:53;;;;;;;7.47;3.13;;;23.30;94.50;;;;;;5037181;28;20070;-87
2022/07/06 11:01:28;;;;;;;10.10;3.47;;;23.70;94.30;;;;;;5051203;28;20029;-86
2022/07/06 11:03:57;;;;;;;5.90;3.42;;;23.50;94.20;;;;;;5053172;28;20025;-86
2022/07/06 11:06:24;;;;;;;6.63;3.58;;;22.80;95.70;;;;;;5054734;28;20029;-87
2022/07/06 11:09:00;;;;;;;9.02;3.80;;;22.60;96.70;;;;;;5036637;28;20030;-86
2022/07/06 11:11:35;;;;;;;5.72;3.50;;;22.40;96.10;;;;;;5046734;28;20048;-86
2022/07/06 11:14:21;;;;;;;11.40;3.85;;;22.50;96.40;;;;;;5086479;28;20028;-86
2022/07/06 11:16:46;;;;;;;7.80;3.65;;;22.30;96.50;;;;;;5052846;28;20394;-87
2022/07/06 11:19:21;;;;;;;16.20;9.15;;;22.10;96.40;;;;;;5069819;28;20028;-86
2022/07/06 11:21:49;;;;;;;7.95;3.47;;;22.00;96.40;;;;;;5069570;28;20025;-87
2022/07/06 11:24:21;;;;;;;9.88;4.03;;;22.60;96.30;;;;;;5051692;28;20091;-86
2022/07/06 11:26:48;;;;;;;10.27;3.30;;;23.30;95.60;;;;;;5052165;28;20029;-87
2022/07/06 11:29:17;;;;;;;8.95;4.10;;;23.30;95.20;;;;;;5052349;28;20025;-88
2022/07/06 11:31:45;;;;;;;7.82;4.65;;;23.60;94.50;;;;;;5052396;28;20025;-86
2022/07/06 11:34:16;;;;;;;9.57;4.55;;;23.40;94.80;;;;;;5052425;28;20025;-86
2022/07/06 11:36:42;;;;;;;5.47;4.47;;;23.00;94.40;;;;;;5052536;28;20067;-86
2022/07/06 11:39:08;;;;;;;10.68;4.57;;;21.70;95.40;;;;;;5051606;28;20056;-87
2022/07/06 11:41:34;;;;;;;5.65;4.43;;;21.90;96.10;;;;;;5075584;28;20032;-91
2022/07/06 11:44:00;;;;;;;9.15;4.28;;;22.40;95.30;;;;;;5066363;28;20135;-87
2022/07/06 11:46:36;;;;;;;8.35;4.15;;;23.00;94.10;;;;;;5060696;28;20033;-89
2022/07/06 11:49:06;;;;;;;8.07;3.83;;;23.30;93.90;;;;;;5036304;28;20159;-87
2022/07/06 11:51:37;;;;;;;7.47;3.63;;;23.50;94.20;;;;;;5052875;28;20033;-87
2022/07/06 11:54:13;;;;;;;5.68;3.10;;;23.60;93.40;;;;;;5051999;28;20029;-85
2022/07/06 11:56:53;;;;;;;7.97;3.10;;;23.10;92.50;;;;;;5051219;28;20021;-86
2022/07/06 11:59:26;;;;;;;6.03;3.60;;;23.20;92.70;;;;;;5052895;28;20241;-87
2022/07/06 12:02:04;;;;;;;7.97;3.55;;;22.60;91.70;;;;;;5054135;28;20100;-86
2022/07/06 12:04:32;;;;;;;4.97;3.05;;;22.50;92.50;;;;;;5052299;28;20398;-86
2022/07/06 12:07:07;;;;;;;7.15;2.85;;;22.30;91.60;;;;;;5059673;28;20104;-86
2022/07/06 12:09:37;;;;;;;5.03;3.00;;;22.40;91.60;;;;;;5051356;28;20071;-87
2022/07/06 12:12:03;;;;;;;7.00;3.40;;;22.60;92.20;;;;;;5052421;28;20490;-87
2022/07/06 12:14:31;;;;;;;5.68;3.25;;;22.90;91.70;;;;;;5053231;28;20034;-87
2022/07/06 12:17:17;;;;;;;6.35;3.20;;;23.00;93.60;;;;;;5051048;28;20028;-88
2022/07/06 12:19:43;;;;;;;6.13;3.38;;;22.40;93.20;;;;;;5060092;28;20052;-86
2022/07/06 12:22:09;;;;;;;5.70;3.50;;;22.30;93.10;;;;;;5062557;28;20029;-87
2022/07/06 12:24:44;;;;;;;4.20;3.03;;;22.20;90.80;;;;;;5067686;28;20107;-86
2022/07/06 12:27:16;;;;;;;4.78;2.30;;;22.60;91.50;;;;;;5051615;28;20044;-87
2022/07/06 12:29:42;;;;;;;7.53;2.10;;;22.80;88.90;;;;;;5052396;28;20124;-86
2022/07/06 12:32:18;;;;;;;8.25;2.85;;;22.80;90.60;;;;;;5052092;28;20493;-87
2022/07/06 12:34:44;;;;;;;10.15;2.53;;;22.50;89.90;;;;;;5050600;28;20037;-86
2022/07/06 12:37:11;;;;;;;10.95;2.47;;;22.50;90.50;;;;;;5052322;28;20478;-86
2022/07/06 12:39:49;;;;;;;5.13;2.53;;;22.90;89.40;;;;;;5072124;28;20040;-87
2022/07/06 12:42:17;;;;;;;4.18;2.30;;;23.20;88.80;;;;;;5030381;28;20117;-86
2022/07/06 12:44:49;;;;;;;5.35;2.30;;;23.60;88.00;;;;;;5050769;28;20040;-86
2022/07/06 12:47:18;;;;;;;7.85;2.30;;;24.10;86.40;;;;;;5056998;28;20076;-87
2022/07/06 12:49:53;;;;;;;2.65;1.88;;;24.20;85.00;;;;;;5050793;28;20080;-87
2022/07/06 12:52:18;;;;;;;7.75;2.65;;;23.90;81.30;;;;;;5050864;28;20044;-87
2022/07/06 12:54:51;;;;;;;7.70;2.20;;;23.90;81.70;;;;;;5058297;28;20025;-87